createdAt,value
2018-08-30T00:01:13.068Z,22.30
2018-08-30T00:03:46.663Z,22.31
2018-08-30T00:06:20.180Z,22.27
2018-08-30T00:08:53.936Z,22.24
2018-08-30T00:11:27.642Z,22.28
2018-08-30T00:14:01.351Z,22.23
2018-08-30T00:16:34.916Z,22.22
2018-08-30T00:19:08.505Z,22.17
2018-08-30T00:21:41.938Z,22.15
2018-08-30T00:24:15.477Z,22.23
2018-08-30T00:26:49.025Z,22.26
2018-08-30T00:29:22.744Z,22.29
2018-08-30T00:31:56.545Z,22.28
2018-08-30T00:34:30.398Z,22.29
2018-08-30T00:37:05.666Z,22.31
2018-08-30T00:39:39.652Z,22.30
2018-08-30T00:42:13.430Z,22.27
2018-08-30T00:44:47.066Z,22.28
2018-08-30T00:47:20.868Z,22.25
2018-08-30T00:49:54.624Z,22.24
2018-08-30T00:52:28.511Z,22.10
2018-08-30T00:55:02.425Z,22.04
2018-08-30T00:57:35.976Z,22.04
2018-08-30T01:00:09.759Z,21.96
2018-08-30T01:02:43.615Z,21.91
2018-08-30T01:05:17.606Z,21.88
2018-08-30T01:07:52.796Z,21.89
2018-08-30T01:10:26.531Z,21.88
2018-08-30T01:13:00.138Z,21.84
2018-08-30T01:15:33.877Z,21.81
2018-08-30T01:18:07.688Z,21.73
2018-08-30T01:20:41.601Z,21.69
2018-08-30T01:23:15.650Z,21.68
2018-08-30T01:25:49.652Z,21.63
2018-08-30T01:28:23.261Z,21.59
2018-08-30T01:30:56.856Z,21.59
2018-08-30T01:33:30.495Z,21.58
2018-08-30T01:36:04.234Z,21.54
2018-08-30T01:38:37.892Z,21.51
2018-08-30T01:41:11.456Z,21.48
2018-08-30T01:43:45.097Z,21.46
2018-08-30T01:46:18.981Z,21.43
2018-08-30T01:48:52.522Z,21.47
2018-08-30T01:51:26.186Z,21.52
2018-08-30T01:54:00.672Z,21.42
2018-08-30T01:56:34.248Z,21.38
2018-08-30T01:59:07.970Z,21.37
2018-08-30T02:01:41.914Z,21.35
2018-08-30T02:04:15.567Z,21.26
2018-08-30T02:06:49.248Z,21.34
2018-08-30T02:09:23.058Z,21.27
2018-08-30T02:11:56.662Z,21.25
2018-08-30T02:14:30.371Z,21.25
2018-08-30T02:17:04.096Z,21.24
2018-08-30T02:19:37.764Z,21.22
2018-08-30T02:22:11.422Z,21.24
2018-08-30T02:24:45.208Z,21.19
2018-08-30T02:27:18.812Z,21.19
2018-08-30T02:29:53.528Z,21.07
2018-08-30T02:32:27.165Z,21.10
2018-08-30T02:35:00.758Z,21.12
2018-08-30T02:37:34.547Z,21.11
2018-08-30T02:40:08.031Z,21.12
2018-08-30T02:42:41.345Z,21.09
2018-08-30T02:45:14.669Z,21.02
2018-08-30T02:47:47.977Z,21.01
2018-08-30T02:50:21.296Z,20.97
2018-08-30T02:52:54.648Z,20.95
2018-08-30T02:55:28.004Z,20.95
2018-08-30T02:58:01.304Z,20.88
2018-08-30T03:00:34.610Z,20.87
2018-08-30T03:03:07.906Z,20.79
2018-08-30T03:05:41.553Z,20.83
2018-08-30T03:08:14.901Z,20.77
2018-08-30T03:10:48.249Z,20.76
2018-08-30T03:13:21.627Z,20.68
2018-08-30T03:15:54.952Z,20.65
2018-08-30T03:18:28.300Z,20.55
2018-08-30T03:21:02.874Z,20.56
2018-08-30T03:23:36.824Z,20.57
2018-08-30T03:26:10.865Z,20.57
2018-08-30T03:28:45.384Z,20.60
2018-08-30T03:31:19.983Z,20.60
2018-08-30T03:33:53.907Z,20.54
2018-08-30T03:36:28.688Z,20.42
2018-08-30T03:39:03.324Z,20.36
2018-08-30T03:41:39.051Z,20.24
2018-08-30T03:44:12.995Z,20.17
2018-08-30T03:46:47.626Z,20.12
2018-08-30T03:49:22.108Z,20.07
2018-08-30T03:51:55.954Z,20.01
2018-08-30T03:54:30.004Z,19.98
2018-08-30T03:57:04.144Z,19.94
2018-08-30T03:59:38.336Z,19.97
2018-08-30T04:02:13.226Z,19.88
2018-08-30T04:04:47.294Z,19.86
2018-08-30T04:07:22.744Z,19.82
2018-08-30T04:09:56.828Z,19.78
2018-08-30T04:12:30.536Z,19.75
2018-08-30T04:15:05.283Z,19.68
2018-08-30T04:17:39.269Z,19.59
2018-08-30T04:20:13.906Z,19.58
2018-08-30T04:22:48.181Z,19.53
2018-08-30T04:25:22.319Z,19.49
2018-08-30T04:27:56.482Z,19.42
2018-08-30T04:30:31.246Z,19.35
2018-08-30T04:33:05.425Z,19.36
2018-08-30T04:35:39.181Z,19.38
2018-08-30T04:38:12.965Z,19.35
2018-08-30T04:40:46.279Z,19.33
2018-08-30T04:43:19.576Z,19.31
2018-08-30T04:45:52.988Z,19.28
2018-08-30T04:48:26.303Z,19.28
2018-08-30T04:50:59.712Z,19.27
2018-08-30T04:53:33.016Z,19.22
2018-08-30T04:56:06.353Z,19.17
2018-08-30T04:58:39.638Z,19.14
2018-08-30T05:01:12.941Z,19.13
2018-08-30T05:03:46.272Z,19.10
2018-08-30T05:06:19.605Z,19.02
2018-08-30T05:08:52.904Z,18.98
2018-08-30T05:11:26.542Z,18.97
2018-08-30T05:13:59.876Z,18.94
2018-08-30T05:16:33.237Z,18.98
2018-08-30T05:19:07.600Z,18.97
2018-08-30T05:21:41.437Z,18.97
2018-08-30T05:24:14.824Z,18.97
2018-08-30T05:26:48.144Z,18.95
2018-08-30T05:29:21.900Z,18.91
2018-08-30T05:31:55.196Z,18.87
2018-08-30T05:34:29.421Z,18.86
2018-08-30T05:37:03.663Z,18.87
2018-08-30T05:39:36.967Z,18.83
2018-08-30T05:42:10.361Z,18.84
2018-08-30T05:44:43.676Z,18.82
2018-08-30T05:47:16.980Z,18.77
2018-08-30T05:49:50.313Z,18.80
2018-08-30T05:52:24.104Z,18.81
2018-08-30T05:54:57.393Z,18.78
2018-08-30T05:57:30.704Z,18.80
2018-08-30T06:00:04.138Z,18.80
2018-08-30T06:02:37.456Z,18.78
2018-08-30T06:05:10.850Z,18.75
2018-08-30T06:07:44.201Z,18.72
2018-08-30T06:10:17.555Z,18.71
2018-08-30T06:12:50.948Z,18.70
2018-08-30T06:15:24.524Z,18.75
2018-08-30T06:17:58.173Z,18.84
2018-08-30T06:20:31.479Z,18.88
2018-08-30T06:23:04.878Z,18.93
2018-08-30T06:25:38.385Z,18.92
2018-08-30T06:28:11.781Z,18.91
2018-08-30T06:30:45.157Z,18.92
2018-08-30T06:33:18.592Z,18.92
2018-08-30T06:35:51.993Z,18.96
2018-08-30T06:38:26.750Z,18.93
2018-08-30T06:41:00.089Z,18.94
2018-08-30T06:43:33.429Z,18.94
2018-08-30T06:46:07.055Z,18.95
2018-08-30T06:48:40.486Z,18.94
2018-08-30T06:51:14.009Z,18.93
2018-08-30T06:53:47.368Z,18.90
2018-08-30T06:56:20.905Z,18.94
2018-08-30T06:58:54.241Z,18.90
2018-08-30T07:01:27.595Z,18.91
2018-08-30T07:04:00.998Z,18.90
2018-08-30T07:06:34.345Z,18.82
2018-08-30T07:09:09.564Z,18.74
2018-08-30T07:11:43.206Z,18.68
2018-08-30T07:14:16.584Z,18.73
2018-08-30T07:16:50.021Z,18.68
2018-08-30T07:19:23.344Z,18.62
2018-08-30T07:21:57.046Z,18.63
2018-08-30T07:24:30.396Z,18.65
2018-08-30T07:27:03.709Z,18.60
2018-08-30T07:29:37.581Z,18.57
2018-08-30T07:32:10.934Z,18.59
2018-08-30T07:34:44.377Z,18.59
2018-08-30T07:37:17.685Z,18.59
2018-08-30T07:39:51.206Z,18.56
2018-08-30T07:42:24.575Z,18.53
2018-08-30T07:44:57.913Z,18.54
2018-08-30T07:47:31.232Z,18.48
2018-08-30T07:50:04.678Z,18.42
2018-08-30T07:52:38.078Z,18.44
2018-08-30T07:55:11.396Z,18.52
2018-08-30T07:57:44.856Z,18.55
2018-08-30T08:00:18.473Z,18.63
2018-08-30T08:02:51.914Z,18.71
2018-08-30T08:05:25.291Z,18.77
2018-08-30T08:07:58.783Z,18.86
2018-08-30T08:10:32.131Z,18.93
2018-08-30T08:13:05.677Z,19.00
2018-08-30T08:15:39.041Z,19.02
2018-08-30T08:18:12.431Z,19.02
2018-08-30T08:20:45.762Z,19.10
2018-08-30T08:23:19.246Z,19.07
2018-08-30T08:25:52.601Z,19.09
2018-08-30T08:28:25.970Z,18.98
2018-08-30T08:30:59.443Z,18.99
2018-08-30T08:33:32.764Z,19.02
2018-08-30T08:36:06.674Z,19.04
2018-08-30T08:38:40.028Z,19.08
2018-08-30T08:41:13.384Z,19.10
2018-08-30T08:43:46.736Z,19.15
2018-08-30T08:46:20.053Z,19.20
2018-08-30T08:48:53.374Z,19.27
2018-08-30T08:51:26.674Z,19.21
2018-08-30T08:54:00.430Z,19.18
2018-08-30T08:56:33.782Z,19.15
2018-08-30T08:59:07.393Z,19.11
2018-08-30T09:01:40.746Z,19.05
2018-08-30T09:04:14.104Z,19.02
2018-08-30T09:06:47.465Z,19.01
2018-08-30T09:09:20.828Z,19.07
2018-08-30T09:11:54.157Z,19.15
2018-08-30T09:14:27.562Z,19.18
2018-08-30T09:17:01.240Z,19.21
2018-08-30T09:19:34.807Z,19.17
2018-08-30T09:22:08.157Z,19.13
2018-08-30T09:24:41.557Z,19.15
2018-08-30T09:27:14.975Z,19.21
2018-08-30T09:29:48.323Z,19.21
2018-08-30T09:32:21.740Z,19.22
2018-08-30T09:34:55.234Z,19.26
2018-08-30T09:37:29.536Z,19.29
2018-08-30T09:40:02.966Z,19.27
2018-08-30T09:42:36.464Z,19.43
2018-08-30T09:45:09.877Z,19.57
2018-08-30T09:47:43.232Z,19.74
2018-08-30T09:50:16.593Z,19.91
2018-08-30T09:52:49.933Z,19.98
2018-08-30T09:55:23.342Z,20.05
2018-08-30T09:57:56.679Z,20.06
2018-08-30T10:00:35.434Z,20.01
2018-08-30T10:03:08.781Z,20.11
2018-08-30T10:05:42.239Z,20.12
2018-08-30T10:08:15.578Z,20.14
2018-08-30T10:10:49.257Z,20.06
2018-08-30T10:13:22.753Z,20.04
2018-08-30T10:15:56.201Z,19.98
2018-08-30T10:18:30.288Z,19.86
2018-08-30T10:21:03.636Z,19.74
2018-08-30T10:23:37.213Z,19.77
2018-08-30T10:26:10.571Z,19.76
2018-08-30T10:28:43.926Z,19.75
2018-08-30T10:31:17.264Z,19.74
2018-08-30T10:33:51.172Z,19.71
2018-08-30T10:36:24.513Z,19.77
2018-08-30T10:38:57.915Z,19.78
2018-08-30T10:41:31.233Z,19.85
2018-08-30T10:44:04.606Z,19.89
2018-08-30T10:46:37.941Z,19.87
2018-08-30T10:49:11.690Z,19.92
2018-08-30T10:51:45.030Z,19.94
2018-08-30T10:54:18.335Z,19.98
2018-08-30T10:56:51.980Z,19.99
2018-08-30T10:59:25.518Z,20.05
2018-08-30T11:01:58.909Z,20.01
2018-08-30T11:04:32.246Z,20.01
2018-08-30T11:07:05.893Z,20.02
2018-08-30T11:09:39.206Z,20.07
2018-08-30T11:12:12.646Z,20.02
2018-08-30T11:14:45.960Z,19.94
2018-08-30T11:17:19.277Z,19.92
2018-08-30T11:19:52.564Z,19.98
2018-08-30T11:22:25.882Z,20.10
2018-08-30T11:24:59.244Z,20.13
2018-08-30T11:27:32.589Z,20.20
2018-08-30T11:30:05.934Z,20.15
2018-08-30T11:32:39.277Z,20.02
2018-08-30T11:35:12.601Z,20.08
2018-08-30T11:37:45.950Z,20.08
2018-08-30T11:40:19.251Z,20.05
2018-08-30T11:42:52.589Z,20.01
2018-08-30T11:45:26.964Z,19.95
2018-08-30T11:48:00.321Z,19.91
2018-08-30T11:50:33.667Z,19.95
2018-08-30T11:53:07.151Z,19.95
2018-08-30T11:55:40.708Z,19.97
2018-08-30T11:58:14.018Z,20.07
2018-08-30T12:00:47.356Z,20.07
2018-08-30T12:03:21.843Z,20.03
2018-08-30T12:05:55.225Z,19.98
2018-08-30T12:08:28.714Z,19.98
2018-08-30T12:11:02.252Z,19.97
2018-08-30T12:13:35.430Z,19.97
2018-08-30T12:16:09.188Z,19.92
2018-08-30T12:18:42.510Z,19.91
2018-08-30T12:21:15.857Z,19.89
2018-08-30T12:23:49.163Z,19.89
2018-08-30T12:26:22.940Z,19.89
2018-08-30T12:28:56.328Z,19.84
2018-08-30T12:31:29.792Z,19.82
2018-08-30T12:34:03.611Z,19.86
2018-08-30T12:36:36.924Z,19.87
2018-08-30T12:39:12.392Z,19.88
2018-08-30T12:41:45.691Z,19.93
2018-08-30T12:44:19.012Z,19.90
2018-08-30T12:46:52.313Z,19.90
2018-08-30T12:49:25.646Z,19.92
2018-08-30T12:51:59.016Z,20.02
2018-08-30T12:54:32.372Z,20.05
2018-08-30T12:57:05.828Z,20.09
2018-08-30T12:59:39.213Z,20.06
2018-08-30T13:02:12.575Z,19.98
2018-08-30T13:04:45.924Z,20.00
2018-08-30T13:07:19.344Z,20.01
2018-08-30T13:09:53.451Z,19.89
2018-08-30T13:12:27.010Z,19.91
2018-08-30T13:15:00.935Z,19.86
2018-08-30T13:17:34.088Z,19.87
2018-08-30T13:20:07.348Z,19.99
2018-08-30T13:22:40.764Z,19.91
2018-08-30T13:25:14.067Z,20.01
2018-08-30T13:27:47.485Z,20.11
2018-08-30T13:30:20.744Z,20.10
2018-08-30T13:32:54.174Z,20.14
2018-08-30T13:35:27.371Z,20.28
2018-08-30T13:38:01.874Z,20.28
2018-08-30T13:40:35.082Z,20.27
2018-08-30T13:43:08.382Z,20.30
2018-08-30T13:45:41.779Z,20.28
2018-08-30T13:48:14.883Z,20.22
2018-08-30T13:50:48.221Z,20.21
2018-08-30T13:53:21.631Z,20.13
2018-08-30T13:55:55.102Z,20.12
2018-08-30T13:58:28.569Z,20.01
2018-08-30T14:01:02.157Z,19.77
2018-08-30T14:03:35.106Z,19.63
2018-08-30T14:06:08.362Z,19.47
2018-08-30T14:08:41.684Z,19.47
2018-08-30T14:11:15.122Z,19.39
2018-08-30T14:13:48.447Z,19.45
2018-08-30T14:16:21.460Z,19.52
2018-08-30T14:18:54.773Z,19.69
2018-08-30T14:21:28.100Z,19.82
2018-08-30T14:24:01.427Z,19.83
2018-08-30T14:26:34.744Z,19.86
2018-08-30T14:29:08.253Z,19.84
2018-08-30T14:31:41.513Z,20.01
2018-08-30T14:34:14.828Z,20.05
2018-08-30T14:36:48.121Z,19.94
2018-08-30T14:39:21.447Z,19.85
2018-08-30T14:41:54.935Z,19.79
2018-08-30T14:44:28.048Z,19.72
2018-08-30T14:47:01.371Z,19.66
2018-08-30T14:49:34.662Z,19.64
2018-08-30T14:52:07.968Z,19.64
2018-08-30T14:54:41.447Z,19.70
2018-08-30T14:57:14.669Z,19.69
2018-08-30T14:59:47.979Z,19.75
2018-08-30T15:02:21.374Z,19.76
2018-08-30T15:04:54.750Z,19.79
2018-08-30T15:07:28.049Z,19.72
2018-08-30T15:10:01.344Z,19.80
2018-08-30T15:12:34.701Z,19.83
2018-08-30T15:15:08.000Z,19.87
2018-08-30T15:17:41.512Z,19.96
2018-08-30T15:20:14.834Z,20.10
2018-08-30T15:22:48.116Z,20.14
2018-08-30T15:25:21.420Z,20.09
2018-08-30T15:27:54.720Z,20.07
2018-08-30T15:30:28.049Z,20.08
2018-08-30T15:33:01.376Z,19.94
2018-08-30T15:35:34.674Z,19.95
2018-08-30T15:38:07.993Z,19.92
2018-08-30T15:40:41.483Z,19.99
2018-08-30T15:43:15.079Z,20.02
2018-08-30T15:45:48.382Z,19.89
2018-08-30T15:48:21.714Z,19.96
2018-08-30T15:50:55.082Z,20.00
2018-08-30T15:53:28.436Z,20.00
2018-08-30T15:56:01.737Z,20.02
2018-08-30T15:58:35.086Z,19.92
2018-08-30T16:01:08.395Z,19.95
2018-08-30T16:03:41.710Z,19.95
2018-08-30T16:06:15.325Z,19.86
2018-08-30T16:08:48.449Z,19.76
2018-08-30T16:11:21.839Z,19.74
2018-08-30T16:13:55.089Z,19.66
2018-08-30T16:16:28.429Z,19.70
2018-08-30T16:19:01.733Z,19.79
2018-08-30T16:21:35.056Z,19.92
2018-08-30T16:24:08.388Z,19.77
2018-08-30T16:26:42.153Z,19.73
2018-08-30T16:29:15.585Z,19.67
2018-08-30T16:31:48.813Z,19.56
2018-08-30T16:34:22.146Z,19.50
2018-08-30T16:36:56.562Z,19.53
2018-08-30T16:39:29.912Z,19.38
2018-08-30T16:42:03.344Z,19.40
2018-08-30T16:44:36.673Z,19.37
2018-08-30T16:47:10.112Z,19.34
2018-08-30T16:49:43.397Z,19.31
2018-08-30T16:52:16.704Z,19.27
2018-08-30T16:54:50.024Z,19.16
2018-08-30T16:57:23.359Z,19.14
2018-08-30T16:59:56.670Z,19.12
2018-08-30T17:02:30.718Z,19.05
2018-08-30T17:05:04.033Z,18.98
2018-08-30T17:07:37.355Z,18.95
2018-08-30T17:10:10.732Z,18.89
2018-08-30T17:12:44.042Z,18.86
2018-08-30T17:15:17.482Z,18.86
2018-08-30T17:17:57.225Z,18.86
2018-08-30T17:20:36.726Z,18.82
2018-08-30T17:23:10.468Z,18.81
2018-08-30T17:25:44.536Z,18.79
2018-08-30T17:28:17.858Z,18.74
2018-08-30T17:30:51.174Z,18.71
2018-08-30T17:33:24.483Z,18.57
2018-08-30T17:35:57.808Z,18.48
2018-08-30T17:38:32.249Z,18.49
2018-08-30T17:41:05.866Z,18.48
2018-08-30T17:43:39.304Z,18.37
2018-08-30T17:46:12.690Z,18.36
2018-08-30T17:48:46.092Z,18.25
2018-08-30T17:51:19.588Z,18.21
2018-08-30T17:53:52.969Z,18.20
2018-08-30T17:56:26.369Z,18.15
2018-08-30T17:59:01.298Z,18.10
2018-08-30T18:01:34.651Z,18.00
2018-08-30T18:04:08.187Z,17.91
2018-08-30T18:06:41.785Z,17.84
2018-08-30T18:09:15.161Z,17.84
2018-08-30T18:11:48.538Z,17.75
2018-08-30T18:14:22.619Z,17.68
2018-08-30T18:16:55.985Z,17.61
2018-08-30T18:19:29.300Z,17.60
2018-08-30T18:22:02.629Z,17.59
2018-08-30T18:24:35.947Z,17.51
2018-08-30T18:27:09.285Z,17.50
2018-08-30T18:29:42.751Z,17.53
2018-08-30T18:32:16.133Z,17.46
2018-08-30T18:34:49.451Z,17.48
2018-08-30T18:37:22.784Z,17.46
2018-08-30T18:39:56.096Z,17.41
2018-08-30T18:42:29.768Z,17.38
2018-08-30T18:45:03.211Z,17.36
2018-08-30T18:47:36.927Z,17.32
2018-08-30T18:50:10.539Z,17.30
2018-08-30T18:52:43.936Z,17.29
2018-08-30T18:55:17.236Z,17.27
2018-08-30T18:57:50.558Z,17.21
2018-08-30T19:00:23.876Z,17.17
2018-08-30T19:02:57.197Z,17.16
2018-08-30T19:05:32.224Z,17.13
2018-08-30T19:08:06.397Z,17.05
2018-08-30T19:10:39.746Z,17.04
2018-08-30T19:13:13.083Z,17.00
2018-08-30T19:15:51.633Z,16.96
2018-08-30T19:18:30.558Z,16.93
2018-08-30T19:21:04.619Z,16.96
2018-08-30T19:23:38.712Z,16.92
2018-08-30T19:26:12.012Z,16.87
2018-08-30T19:28:46.315Z,16.85
2018-08-30T19:31:19.657Z,16.84
2018-08-30T19:33:53.254Z,16.84
2018-08-30T19:36:30.070Z,16.82
2018-08-30T19:39:04.702Z,16.83
2018-08-30T19:41:38.216Z,16.77
2018-08-30T19:44:11.551Z,16.73
2018-08-30T19:46:45.177Z,16.66
2018-08-30T19:49:19.148Z,16.61
2018-08-30T19:51:52.500Z,16.55
2018-08-30T19:54:26.364Z,16.52
2018-08-30T19:57:00.548Z,16.45
2018-08-30T19:59:33.984Z,16.39
2018-08-30T20:02:07.372Z,16.34
2018-08-30T20:04:44.505Z,16.29
2018-08-30T20:07:18.933Z,16.21
2018-08-30T20:09:52.632Z,16.08
2018-08-30T20:12:26.512Z,16.02
2018-08-30T20:15:00.764Z,16.01
2018-08-30T20:17:34.740Z,15.99
2018-08-30T20:20:08.444Z,15.96
2018-08-30T20:22:42.569Z,15.90
2018-08-30T20:25:16.472Z,15.89
2018-08-30T20:27:49.826Z,15.89
2018-08-30T20:30:23.577Z,15.90
2018-08-30T20:32:56.903Z,15.88
2018-08-30T20:35:30.254Z,15.87
2018-08-30T20:38:03.717Z,15.87
2018-08-30T20:40:37.045Z,15.87
2018-08-30T20:43:10.353Z,15.83
2018-08-30T20:45:43.635Z,15.81
2018-08-30T20:48:16.944Z,15.74
2018-08-30T20:50:50.272Z,15.64
2018-08-30T20:53:23.717Z,15.62
2018-08-30T20:55:57.015Z,15.58
2018-08-30T20:58:30.392Z,15.53
2018-08-30T21:01:03.685Z,15.49
2018-08-30T21:03:37.000Z,15.51
2018-08-30T21:06:10.371Z,15.51
2018-08-30T21:08:43.681Z,15.51
2018-08-30T21:11:17.004Z,15.51
2018-08-30T21:13:50.347Z,15.52
2018-08-30T21:16:23.661Z,15.50
2018-08-30T21:18:57.260Z,15.50
2018-08-30T21:21:30.690Z,15.46
2018-08-30T21:24:04.045Z,15.45
2018-08-30T21:26:37.337Z,15.44
2018-08-30T21:29:10.731Z,15.42
2018-08-30T21:31:44.036Z,15.38
2018-08-30T21:34:17.386Z,15.38
2018-08-30T21:36:50.664Z,15.33
2018-08-30T21:39:23.980Z,15.22
2018-08-30T21:41:57.391Z,15.19
2018-08-30T21:44:30.973Z,15.15
2018-08-30T21:47:04.280Z,15.09
2018-08-30T21:49:37.650Z,15.08
2018-08-30T21:52:10.974Z,15.05
2018-08-30T21:54:44.373Z,15.06
2018-08-30T21:57:17.768Z,15.03
2018-08-30T21:59:51.113Z,15.01
2018-08-30T22:02:24.549Z,15.01
2018-08-30T22:04:58.765Z,14.96
2018-08-30T22:07:32.772Z,14.93
2018-08-30T22:10:06.380Z,14.88
2018-08-30T22:12:39.788Z,14.83
2018-08-30T22:15:13.129Z,14.77
2018-08-30T22:17:46.446Z,14.73
2018-08-30T22:20:19.785Z,14.67
2018-08-30T22:22:53.157Z,14.63
2018-08-30T22:25:26.485Z,14.61
2018-08-30T22:27:59.904Z,14.59
2018-08-30T22:30:33.237Z,14.53
2018-08-30T22:33:06.593Z,14.48
2018-08-30T22:35:39.908Z,14.44
2018-08-30T22:38:13.385Z,14.38
2018-08-30T22:40:46.923Z,14.31
2018-08-30T22:43:20.293Z,14.27
2018-08-30T22:45:53.913Z,14.22
2018-08-30T22:48:27.429Z,14.19
2018-08-30T22:51:01.481Z,14.18
2018-08-30T22:53:34.887Z,14.13
2018-08-30T22:56:08.255Z,14.03
2018-08-30T22:58:41.722Z,13.96
2018-08-30T23:01:15.213Z,13.94
2018-08-30T23:03:48.671Z,13.92
2018-08-30T23:06:22.209Z,13.86
2018-08-30T23:08:55.647Z,13.80
2018-08-30T23:11:29.017Z,13.80
2018-08-30T23:14:02.341Z,13.77
2018-08-30T23:16:35.767Z,13.76
2018-08-30T23:19:09.133Z,13.70
2018-08-30T23:21:42.526Z,13.71
2018-08-30T23:24:15.888Z,13.72
2018-08-30T23:26:49.196Z,13.69
2018-08-30T23:29:22.593Z,13.65
2018-08-30T23:31:56.756Z,13.64
2018-08-30T23:34:30.113Z,13.65
2018-08-30T23:37:03.440Z,13.62
2018-08-30T23:39:36.821Z,13.61
2018-08-30T23:42:10.170Z,13.57
2018-08-30T23:44:43.509Z,13.54
2018-08-30T23:47:16.830Z,13.50
2018-08-30T23:49:50.164Z,13.46
2018-08-30T23:52:23.598Z,13.44
2018-08-30T23:54:56.963Z,13.40
2018-08-30T23:57:30.329Z,13.37
